createdAt,value
2023-03-21T05:47:36.836Z,2.03
2023-03-21T05:50:05.276Z,2.10
2023-03-21T05:52:33.198Z,1.92
2023-03-21T05:55:01.079Z,2.10
2023-03-21T05:57:29.644Z,2.00
2023-03-21T05:59:57.563Z,2.13
2023-03-21T06:02:25.677Z,2.30
2023-03-21T06:04:55.014Z,2.00
2023-03-21T06:07:22.959Z,6.60
2023-03-21T06:09:51.820Z,5.25
2023-03-21T06:12:19.832Z,4.53
2023-03-21T06:14:47.842Z,3.42
2023-03-21T06:17:15.884Z,6.13
2023-03-21T06:19:43.768Z,5.22
2023-03-21T06:22:13.055Z,3.33
2023-03-21T06:24:41.319Z,2.40
2023-03-21T06:27:09.271Z,2.10
2023-03-21T06:29:37.224Z,2.40
2023-03-21T06:32:05.788Z,2.15
2023-03-21T06:34:33.708Z,2.00
2023-03-21T06:37:01.952Z,2.75
2023-03-21T06:39:33.002Z,3.28
2023-03-21T06:42:01.663Z,2.92
2023-03-21T06:44:29.764Z,3.20
2023-03-21T06:46:57.739Z,3.58
2023-03-21T06:49:26.015Z,4.53
2023-03-21T06:51:54.009Z,4.43
2023-03-21T06:54:22.155Z,4.32
2023-03-21T06:56:51.548Z,5.30
2023-03-21T06:59:19.457Z,5.03
2023-03-21T07:01:47.400Z,6.47
2023-03-21T07:04:15.298Z,8.48
2023-03-21T07:06:43.299Z,4.88
2023-03-21T07:09:11.329Z,3.03
2023-03-21T07:11:39.385Z,2.30
2023-03-21T07:14:08.716Z,2.05
2023-03-21T07:16:36.704Z,2.13
2023-03-21T07:19:05.052Z,2.17
2023-03-21T07:21:33.001Z,3.40
2023-03-21T07:24:01.119Z,2.50
2023-03-21T07:26:29.163Z,2.00
2023-03-21T07:28:57.063Z,2.10
2023-03-21T07:31:27.125Z,2.20
2023-03-21T07:33:55.091Z,3.60
2023-03-21T07:36:23.083Z,3.20
2023-03-21T07:38:51.456Z,4.05
2023-03-21T07:41:19.352Z,4.28
2023-03-21T07:43:47.311Z,4.03
2023-03-21T15:02:39.266Z,2.28
2023-03-21T15:05:11.612Z,2.17
2023-03-21T15:07:39.706Z,1.80
2023-03-21T15:10:10.576Z,2.03
2023-03-21T15:12:38.826Z,1.52
2023-03-21T15:15:08.061Z,1.90
2023-03-21T15:17:37.734Z,1.70
2023-03-21T15:20:10.185Z,1.80
2023-03-21T15:22:41.565Z,1.70
2023-03-21T15:25:16.368Z,1.60
2023-03-21T15:27:44.896Z,1.50
2023-03-21T15:30:21.697Z,1.88
2023-03-21T15:32:51.639Z,1.67
2023-03-21T15:35:23.261Z,1.90
2023-03-21T15:37:56.199Z,1.50
2023-03-21T15:40:27.504Z,1.80
2023-03-21T15:43:06.468Z,1.80
2023-03-21T15:45:34.501Z,1.30
2023-03-21T15:48:10.277Z,1.45
2023-03-21T15:50:40.672Z,1.50
2023-03-21T15:53:15.010Z,1.50
2023-03-21T15:55:48.080Z,1.35
2023-03-21T15:58:19.169Z,1.50
2023-03-21T16:00:54.983Z,1.13
2023-03-21T16:03:27.169Z,1.00
2023-03-21T16:06:06.176Z,1.15
2023-03-21T16:08:36.504Z,1.30
2023-03-21T16:11:09.360Z,1.00
2023-03-21T16:13:37.274Z,0.98
2023-03-21T16:16:05.629Z,1.00
2023-03-21T16:18:35.120Z,1.02
2023-03-21T16:21:03.096Z,1.60
2023-03-21T16:23:31.063Z,1.27
2023-03-21T16:25:59.116Z,1.30
2023-03-21T16:28:27.104Z,1.25
2023-03-21T16:30:55.090Z,1.30
2023-03-21T16:33:25.434Z,1.55
2023-03-21T16:35:57.397Z,1.67
2023-03-21T16:38:25.767Z,1.42
2023-03-21T16:40:53.735Z,1.10
2023-03-21T16:43:21.792Z,1.10
2023-03-21T16:45:49.865Z,1.23
2023-03-21T16:48:18.795Z,0.90
2023-03-21T16:50:48.902Z,1.20
2023-03-21T16:53:18.250Z,1.02
2023-03-21T16:55:46.424Z,1.13
2023-03-21T16:58:16.682Z,1.42
2023-03-21T17:00:44.654Z,2.78
2023-03-21T17:03:18.950Z,6.35
2023-03-21T17:05:47.176Z,2.30
2023-03-21T17:08:19.224Z,1.23
2023-03-21T17:10:47.446Z,1.30
2023-03-21T17:13:15.528Z,1.40
2023-03-21T17:15:43.483Z,2.00
2023-03-21T17:18:12.340Z,2.40
2023-03-21T17:20:41.707Z,2.30
2023-03-21T17:23:10.233Z,2.70
2023-03-21T17:25:39.640Z,2.70
2023-03-21T17:28:07.647Z,2.70
2023-03-21T17:30:39.999Z,2.55
2023-03-21T17:33:08.528Z,3.33
2023-03-21T17:35:36.569Z,2.85
2023-03-21T17:38:05.260Z,2.85
2023-03-21T17:40:34.558Z,3.00
2023-03-21T17:43:03.933Z,2.47
2023-03-21T17:45:31.909Z,2.85
2023-03-21T17:47:59.875Z,2.60
2023-03-21T17:50:34.058Z,2.70
2023-03-21T17:53:02.045Z,2.53
2023-03-21T17:55:30.584Z,3.00
2023-03-21T17:57:58.531Z,2.58
2023-03-21T18:00:29.906Z,21.90
2023-03-21T18:02:58.214Z,5.65
2023-03-21T18:05:27.479Z,6.32
2023-03-21T18:08:12.685Z,5.10
2023-03-21T18:10:42.159Z,4.50
2023-03-21T18:13:12.625Z,5.93
2023-03-21T18:15:44.154Z,8.98
2023-03-21T18:18:12.975Z,6.20
2023-03-21T18:20:58.422Z,6.82
2023-03-21T18:23:26.977Z,83.88
2023-03-21T18:25:55.031Z,65.05
2023-03-21T18:28:23.516Z,34.08
2023-03-21T18:31:08.241Z,12.23
2023-03-21T18:33:40.612Z,12.27
2023-03-21T18:36:09.775Z,50.70
2023-03-21T18:38:37.882Z,14.10
2023-03-21T18:41:06.478Z,13.43
2023-03-21T18:44:00.995Z,16.48
2023-03-21T18:46:24.172Z,7.70
2023-03-21T18:48:52.692Z,9.45
2023-03-21T18:51:21.829Z,56.20
2023-03-21T18:53:50.383Z,65.18
2023-03-21T18:57:06.079Z,82.03
2023-03-21T18:59:07.617Z,23.80
2023-03-21T19:01:37.397Z,5.60
2023-03-21T19:04:20.985Z,4.50
2023-03-21T19:06:51.647Z,3.65
2023-03-21T19:09:19.685Z,4.05
2023-03-21T19:11:48.042Z,3.30
2023-03-21T19:14:17.738Z,5.93
2023-03-21T19:17:32.705Z,7.32
2023-03-21T19:19:35.782Z,7.85
2023-03-21T19:22:04.035Z,7.53
2023-03-21T19:24:32.073Z,5.53
2023-03-21T19:27:00.858Z,5.97
2023-03-21T19:29:29.195Z,16.67
2023-03-21T19:31:58.959Z,16.98
2023-03-21T19:34:27.876Z,10.05
2023-03-21T19:36:57.312Z,12.27
2023-03-21T19:39:25.563Z,10.10
2023-03-21T19:41:58.877Z,7.95
2023-03-21T19:44:36.669Z,13.75
2023-03-21T19:47:06.619Z,7.03
2023-03-21T19:50:10.012Z,3.53
2023-03-21T19:52:23.458Z,3.25
2023-03-21T19:54:51.578Z,2.75
2023-03-21T19:57:19.578Z,5.65
2023-03-21T19:59:53.891Z,6.22
2023-03-21T20:02:35.440Z,9.23
2023-03-21T20:05:04.798Z,4.97
2023-03-21T20:07:33.218Z,2.78
2023-03-21T20:10:01.451Z,3.33
2023-03-21T20:12:29.771Z,3.67
2023-03-21T20:15:10.448Z,4.68
2023-03-21T20:17:46.112Z,3.15
2023-03-21T20:20:17.618Z,3.33
2023-03-21T20:23:07.561Z,2.30
2023-03-21T20:25:36.775Z,2.17
2023-03-21T20:28:26.016Z,2.00
2023-03-21T20:30:56.915Z,1.98
2023-03-21T20:33:26.741Z,1.70
2023-03-21T20:38:48.150Z,1.38
2023-03-21T20:41:16.476Z,1.90
2023-03-21T20:44:29.947Z,1.50
2023-03-21T20:46:33.748Z,1.50
2023-03-21T20:49:06.689Z,1.70
2023-03-21T20:54:23.630Z,1.70
2023-03-21T20:56:52.048Z,2.50
2023-03-21T20:59:26.639Z,3.22
